createdAt,value
2019-04-20T00:01:32.307Z,42.01
2019-04-20T00:04:01.036Z,42.05
2019-04-20T00:06:31.751Z,42.04
2019-04-20T00:09:08.774Z,42.06
2019-04-20T00:11:45.895Z,42.10
2019-04-20T00:14:10.387Z,42.14
2019-04-20T00:16:35.679Z,42.17
2019-04-20T00:19:05.879Z,42.22
2019-04-20T00:21:57.754Z,42.33
2019-04-20T00:24:42.295Z,42.36
2019-04-20T00:27:38.926Z,42.47
2019-04-20T00:29:58.797Z,42.48
2019-04-20T00:32:29.648Z,42.63
2019-04-20T00:34:47.739Z,42.74
2019-04-20T00:37:17.112Z,42.77
2019-04-20T00:39:46.883Z,42.75
2019-04-20T00:42:17.936Z,42.75
2019-04-20T00:44:57.617Z,42.80
2019-04-20T00:47:30.923Z,42.88
2019-04-20T00:50:01.121Z,42.99
2019-04-20T00:52:37.521Z,43.13
2019-04-20T00:54:51.574Z,43.23
2019-04-20T00:57:34.035Z,43.35
2019-04-20T01:00:12.563Z,43.49
2019-04-20T01:02:37.100Z,43.47
2019-04-20T01:05:12.833Z,43.46
2019-04-20T01:08:06.169Z,43.46
2019-04-20T01:10:39.519Z,43.55
2019-04-20T01:13:08.653Z,43.56
2019-04-20T01:15:43.815Z,43.92
2019-04-20T01:18:06.195Z,44.17
2019-04-20T01:20:36.499Z,44.23
2019-04-20T01:23:10.072Z,44.17
2019-04-20T01:25:40.981Z,44.31
2019-04-20T01:28:24.569Z,44.51
2019-04-20T01:30:45.807Z,44.64
2019-04-20T01:33:25.179Z,44.76
2019-04-20T01:35:56.963Z,44.87
2019-04-20T01:38:26.742Z,44.88
2019-04-20T01:40:44.356Z,44.91
2019-04-20T01:43:14.229Z,45.01
2019-04-20T01:45:45.763Z,44.94
2019-04-20T01:48:22.928Z,44.82
2019-04-20T01:50:54.823Z,44.74
2019-04-20T01:53:40.569Z,44.80
2019-04-20T01:56:08.306Z,44.92
2019-04-20T01:58:46.155Z,45.06
2019-04-20T02:01:27.233Z,45.19
2019-04-20T02:04:03.249Z,45.31
2019-04-20T02:06:41.861Z,45.25
2019-04-20T02:09:10.113Z,45.28
2019-04-20T02:11:39.347Z,45.41
2019-04-20T02:14:09.134Z,45.54
2019-04-20T02:16:45.212Z,45.58
2019-04-20T02:19:25.117Z,45.69
2019-04-20T02:21:55.340Z,45.85
2019-04-20T02:24:12.519Z,46.11
2019-04-20T02:26:42.943Z,46.32
2019-04-20T02:29:36.074Z,46.43
2019-04-20T02:34:55.520Z,46.67
2019-04-20T02:38:08.395Z,46.94
2019-04-20T02:40:28.744Z,47.16
2019-04-20T02:42:57.612Z,47.41
2019-04-20T02:47:56.704Z,47.78
2019-04-20T02:55:31.974Z,48.16
2019-04-20T02:58:00.710Z,48.27
2019-04-20T03:00:28.790Z,48.42
2019-04-20T03:02:42.698Z,48.49
2019-04-20T03:05:14.912Z,48.63
2019-04-20T03:07:54.688Z,48.80
2019-04-20T03:10:31.394Z,48.95
2019-04-20T03:12:55.127Z,49.02
2019-04-20T03:15:29.556Z,49.01
2019-04-20T03:17:57.260Z,49.04
2019-04-20T03:20:29.987Z,49.08
2019-04-20T03:23:19.112Z,49.23
2019-04-20T03:26:09.606Z,49.28
2019-04-20T03:28:53.876Z,49.31
2019-04-20T03:32:03.779Z,49.27
2019-04-20T03:36:39.761Z,49.26
2019-04-20T03:38:57.253Z,49.35
2019-04-20T03:41:19.534Z,49.45
2019-04-20T03:43:43.473Z,49.53
2019-04-20T03:46:17.412Z,49.58
2019-04-20T03:48:58.840Z,49.62
2019-04-20T03:51:40.039Z,49.69
2019-04-20T03:54:13.775Z,49.80
2019-04-20T03:57:17.315Z,49.89
2019-04-20T03:59:50.708Z,49.85
2019-04-20T04:03:05.635Z,49.80
2019-04-20T04:05:23.580Z,49.80
2019-04-20T04:07:45.271Z,49.72
2019-04-20T04:10:27.356Z,49.76
2019-04-20T04:13:09.951Z,49.91
2019-04-20T04:15:46.779Z,50.03
2019-04-20T04:18:20.011Z,49.97
2019-04-20T04:20:51.549Z,50.14
2019-04-20T04:23:35.629Z,50.19
2019-04-20T04:26:04.475Z,50.21
2019-04-20T04:28:37.307Z,50.16
2019-04-20T04:31:08.124Z,50.18
2019-04-20T04:33:52.008Z,50.14
2019-04-20T04:36:10.413Z,50.12
2019-04-20T04:39:00.981Z,50.01
2019-04-20T04:41:20.253Z,50.03
2019-04-20T04:43:48.095Z,49.94
2019-04-20T04:45:57.342Z,49.85
2019-04-20T04:48:32.074Z,49.87
2019-04-20T04:51:03.768Z,49.77
2019-04-20T04:53:43.236Z,49.60
2019-04-20T04:56:07.274Z,49.49
2019-04-20T04:58:33.933Z,49.47
2019-04-20T05:01:10.667Z,49.50
2019-04-20T05:03:54.016Z,49.56
2019-04-20T05:06:29.136Z,49.59
2019-04-20T05:08:49.930Z,49.54
2019-04-20T05:11:15.194Z,49.36
2019-04-20T05:13:50.586Z,49.26
2019-04-20T05:16:37.329Z,49.14
2019-04-20T05:19:11.544Z,48.90
2019-04-20T05:21:58.761Z,48.73
2019-04-20T05:24:33.853Z,48.75
2019-04-20T05:27:30.246Z,48.82
2019-04-20T05:29:40.819Z,49.00
2019-04-20T05:32:16.346Z,49.17
2019-04-20T05:35:05.107Z,49.20
2019-04-20T05:37:53.288Z,49.15
2019-04-20T05:40:09.400Z,49.15
2019-04-20T05:42:37.240Z,49.11
2019-04-20T05:45:07.561Z,49.06
2019-04-20T05:47:41.098Z,49.04
2019-04-20T05:50:04.958Z,49.02
2019-04-20T05:52:50.207Z,48.99
2019-04-20T05:55:14.450Z,48.79
2019-04-20T05:57:42.255Z,48.49
2019-04-20T06:00:23.337Z,48.35
2019-04-20T06:02:47.550Z,48.38
2019-04-20T06:05:25.271Z,48.31
2019-04-20T06:07:49.111Z,48.27
2019-04-20T06:10:26.009Z,48.33
2019-04-20T06:12:52.971Z,48.25
2019-04-20T06:15:30.602Z,48.18
2019-04-20T06:18:23.071Z,48.16
2019-04-20T06:20:52.495Z,48.12
2019-04-20T06:23:50.843Z,48.03
2019-04-20T06:28:48.904Z,47.67
2019-04-20T06:31:26.491Z,47.52
2019-04-20T06:34:30.360Z,47.42
2019-04-20T06:44:32.225Z,46.84
2019-04-20T06:47:02.757Z,46.71
2019-04-20T06:52:20.313Z,46.37
2019-04-20T06:55:11.120Z,46.19
2019-04-20T06:57:40.558Z,45.85
2019-04-20T07:02:44.646Z,45.17
2019-04-20T07:05:26.030Z,44.78
2019-04-20T07:07:47.952Z,44.46
2019-04-20T07:10:31.366Z,44.09
2019-04-20T07:12:43.746Z,43.88
2019-04-20T07:15:16.278Z,43.79
2019-04-20T07:17:57.267Z,43.56
2019-04-20T07:20:51.640Z,43.36
2019-04-20T07:23:23.841Z,43.18
2019-04-20T07:26:03.966Z,43.35
2019-04-20T07:28:24.749Z,43.17
2019-04-20T07:30:46.361Z,42.98
2019-04-20T07:33:25.715Z,42.78
2019-04-20T07:35:48.154Z,42.17
2019-04-20T07:40:55.274Z,41.19
2019-04-20T07:43:23.499Z,40.91
2019-04-20T07:45:49.244Z,40.63
2019-04-20T07:48:21.175Z,40.14
2019-04-20T07:50:44.987Z,38.11
2019-04-20T07:53:20.216Z,38.11
2019-04-20T07:56:02.777Z,37.36
2019-04-20T07:58:18.407Z,36.53
2019-04-20T08:01:08.067Z,35.54
2019-04-20T08:03:58.668Z,35.11
2019-04-20T08:06:45.440Z,34.30
2019-04-20T08:09:24.362Z,33.77
2019-04-20T08:12:11.304Z,32.93
2019-04-20T08:14:42.395Z,32.06
2019-04-20T08:19:34.826Z,31.17
2019-04-20T08:22:08.252Z,31.04
2019-04-20T08:24:37.502Z,30.94
2019-04-20T08:27:01.081Z,30.86
2019-04-20T08:29:48.323Z,30.70
2019-04-20T08:32:53.969Z,30.51
2019-04-20T08:35:32.031Z,30.21
2019-04-20T08:38:24.150Z,29.73
2019-04-20T08:40:40.353Z,28.96
2019-04-20T08:43:20.106Z,28.31
2019-04-20T08:45:43.111Z,27.79
2019-04-20T08:48:19.809Z,27.31
2019-04-20T08:50:45.009Z,27.00
2019-04-20T08:53:21.945Z,26.87
2019-04-20T08:55:43.787Z,26.45
2019-04-20T08:57:57.306Z,25.78
2019-04-20T09:00:33.112Z,25.32
2019-04-20T09:03:06.742Z,24.95
2019-04-20T09:05:40.586Z,24.39
2019-04-20T09:08:09.269Z,23.78
2019-04-20T09:10:49.569Z,23.39
2019-04-20T09:13:16.054Z,23.36
2019-04-20T09:15:34.237Z,23.46
2019-04-20T09:18:16.985Z,23.05
2019-04-20T09:20:50.534Z,22.72
2019-04-20T09:23:31.389Z,22.31
2019-04-20T09:26:04.896Z,21.75
2019-04-20T09:28:34.570Z,21.48
2019-04-20T09:31:18.122Z,21.36
2019-04-20T09:33:52.764Z,20.91
2019-04-20T09:36:23.904Z,21.00
2019-04-20T09:39:16.427Z,20.95
2019-04-20T09:41:59.911Z,20.81
2019-04-20T09:44:13.874Z,20.67
2019-04-20T09:46:49.207Z,20.22
2019-04-20T09:49:26.911Z,19.83
2019-04-20T09:52:01.770Z,19.81
2019-04-20T09:54:40.431Z,19.75
2019-04-20T09:57:10.463Z,20.02
2019-04-20T09:59:38.269Z,20.21
2019-04-20T10:02:01.152Z,19.86
2019-04-20T10:04:21.608Z,19.47
2019-04-20T10:06:51.798Z,19.44
2019-04-20T10:09:27.999Z,19.36
2019-04-20T10:11:53.322Z,19.20
2019-04-20T10:14:22.690Z,19.01
2019-04-20T10:16:52.257Z,18.48
2019-04-20T10:19:26.575Z,19.30
2019-04-20T10:21:52.890Z,18.52
2019-04-20T10:24:22.455Z,17.96
2019-04-20T10:26:52.461Z,19.08
2019-04-20T10:29:21.742Z,18.96
2019-04-20T10:31:55.716Z,18.20
2019-04-20T10:34:24.075Z,18.19
2019-04-20T10:37:13.501Z,18.40
2019-04-20T10:39:44.659Z,18.32
2019-04-20T10:42:14.269Z,17.34
2019-04-20T10:44:45.103Z,17.29
2019-04-20T10:47:14.882Z,17.41
2019-04-20T10:49:47.051Z,17.75
2019-04-20T10:52:17.837Z,17.23
2019-04-20T10:54:48.097Z,17.48
2019-04-20T10:57:17.756Z,17.42
2019-04-20T10:59:47.751Z,17.44
2019-04-20T11:02:17.773Z,17.15
2019-04-20T11:04:48.635Z,16.64
2019-04-20T11:07:18.710Z,17.08
2019-04-20T11:10:00.621Z,17.23
2019-04-20T11:12:20.083Z,17.12
2019-04-20T11:14:50.251Z,17.13
2019-04-20T11:17:20.423Z,16.40
2019-04-20T11:19:50.068Z,16.94
2019-04-20T11:22:20.063Z,17.58
2019-04-20T11:24:50.259Z,17.75
2019-04-20T11:27:20.404Z,17.82
2019-04-20T11:29:49.901Z,17.34
2019-04-20T11:32:20.177Z,17.75
2019-04-20T11:34:49.701Z,17.65
2019-04-20T11:37:19.366Z,17.54
2019-04-20T11:39:48.860Z,17.63
2019-04-20T11:42:19.465Z,17.93
2019-04-20T11:44:48.978Z,18.11
2019-04-20T11:47:18.850Z,17.81
2019-04-20T11:49:49.332Z,18.24
2019-04-20T11:52:21.381Z,17.66
2019-04-20T11:54:50.519Z,17.35
2019-04-20T11:57:20.079Z,17.45
2019-04-20T11:59:50.581Z,17.63
2019-04-20T12:02:34.899Z,17.24
2019-04-20T12:05:19.526Z,17.10
2019-04-20T12:07:53.146Z,17.49
2019-04-20T12:10:24.133Z,18.02
2019-04-20T12:12:55.759Z,17.97
2019-04-20T12:15:26.650Z,17.74
2019-04-20T12:17:57.799Z,17.71
2019-04-20T12:20:26.990Z,17.72
2019-04-20T12:22:56.286Z,17.91
2019-04-20T12:25:25.967Z,18.21
2019-04-20T12:27:58.477Z,18.06
2019-04-20T12:30:27.899Z,18.36
2019-04-20T12:33:01.926Z,18.48
2019-04-20T12:35:32.018Z,18.92
2019-04-20T12:38:01.187Z,19.23
2019-04-20T12:40:30.365Z,19.27
2019-04-20T12:43:01.244Z,19.33
2019-04-20T12:45:31.515Z,19.32
2019-04-20T12:48:01.774Z,19.24
2019-04-20T12:50:31.812Z,19.17
2019-04-20T12:53:02.355Z,19.61
2019-04-20T12:55:32.558Z,19.85
2019-04-20T12:58:02.843Z,19.53
2019-04-20T13:00:49.251Z,19.17
2019-04-20T13:03:19.421Z,19.43
2019-04-20T13:05:50.138Z,19.76
2019-04-20T13:08:27.043Z,19.64
2019-04-20T13:11:08.579Z,19.63
2019-04-20T13:14:08.891Z,19.43
2019-04-20T13:16:40.529Z,19.52
2019-04-20T13:19:11.137Z,19.43
2019-04-20T13:21:40.987Z,19.20
2019-04-20T13:24:11.376Z,19.28
2019-04-20T13:26:40.756Z,20.03
2019-04-20T13:29:10.990Z,20.13
2019-04-20T13:31:41.765Z,19.71
2019-04-20T13:34:11.323Z,19.98
2019-04-20T13:36:40.498Z,20.04
2019-04-20T13:39:10.146Z,19.92
2019-04-20T13:41:40.051Z,19.94
2019-04-20T13:44:09.521Z,19.93
2019-04-20T13:46:39.168Z,20.06
2019-04-20T13:49:09.307Z,20.04
2019-04-20T13:51:41.046Z,20.10
2019-04-20T13:54:15.081Z,20.12
2019-04-20T13:56:44.366Z,20.27
2019-04-20T13:59:39.607Z,20.32
2019-04-20T14:02:31.451Z,20.16
2019-04-20T14:05:04.708Z,20.31
2019-04-20T14:07:35.657Z,20.37
2019-04-20T14:10:06.856Z,20.54
2019-04-20T14:12:40.245Z,20.78
2019-04-20T14:15:11.242Z,20.78
2019-04-20T14:17:41.385Z,20.77
2019-04-20T14:20:15.215Z,20.68
2019-04-20T14:22:42.995Z,20.66
2019-04-20T14:25:13.211Z,20.80
2019-04-20T14:27:42.896Z,20.24
2019-04-20T14:30:13.021Z,19.50
2019-04-20T14:32:43.002Z,19.10
2019-04-20T14:35:12.486Z,18.38
2019-04-20T14:37:41.748Z,17.76
2019-04-20T14:40:12.572Z,17.91
2019-04-20T14:42:49.710Z,18.15
2019-04-20T14:45:16.458Z,17.49
2019-04-20T14:47:45.931Z,16.94
2019-04-20T14:50:15.948Z,16.47
2019-04-20T14:52:47.178Z,15.85
2019-04-20T14:55:17.727Z,15.50
2019-04-20T14:57:47.839Z,15.29
2019-04-20T15:00:37.454Z,14.96
2019-04-20T15:03:25.995Z,14.71
2019-04-20T15:06:00.010Z,15.36
2019-04-20T15:08:30.406Z,15.86
2019-04-20T15:11:01.043Z,15.88
2019-04-20T15:13:30.845Z,15.80
2019-04-20T15:16:00.351Z,15.30
2019-04-20T15:18:33.679Z,14.93
2019-04-20T15:21:05.695Z,14.95
2019-04-20T15:23:35.323Z,14.96
2019-04-20T15:26:04.695Z,15.09
2019-04-20T15:28:34.475Z,15.54
2019-04-20T15:31:03.682Z,16.09
2019-04-20T15:33:32.981Z,16.23
2019-04-20T15:36:02.413Z,15.79
2019-04-20T15:38:31.605Z,15.92
2019-04-20T15:41:00.785Z,15.72
2019-04-20T15:43:30.411Z,15.36
2019-04-20T15:45:59.633Z,15.02
2019-04-20T15:48:30.034Z,14.86
2019-04-20T15:50:59.645Z,14.75
2019-04-20T15:53:29.401Z,14.38
2019-04-20T15:56:00.572Z,14.43
2019-04-20T15:58:30.227Z,15.06
2019-04-20T16:01:00.557Z,15.56
2019-04-20T16:03:59.269Z,16.12
2019-04-20T16:06:29.538Z,16.39
2019-04-20T16:09:00.287Z,16.60
2019-04-20T16:11:30.802Z,17.07
2019-04-20T16:14:02.021Z,17.49
2019-04-20T16:16:31.978Z,17.79
2019-04-20T16:19:06.302Z,17.78
2019-04-20T16:21:36.769Z,17.96
2019-04-20T16:24:10.934Z,18.19
2019-04-20T16:27:11.530Z,18.40
2019-04-20T16:29:41.896Z,18.74
2019-04-20T16:32:12.274Z,19.10
2019-04-20T16:34:42.565Z,19.58
2019-04-20T16:37:12.592Z,20.07
2019-04-20T16:39:42.906Z,20.24
2019-04-20T16:42:14.156Z,20.35
2019-04-20T16:44:43.629Z,20.34
2019-04-20T16:47:16.342Z,20.49
2019-04-20T16:49:48.828Z,20.68
2019-04-20T16:52:19.062Z,20.89
2019-04-20T16:54:48.518Z,21.21
2019-04-20T16:57:17.882Z,21.42
2019-04-20T16:59:50.531Z,21.96
2019-04-20T17:02:19.925Z,22.20
2019-04-20T17:04:52.050Z,22.63
2019-04-20T17:07:26.909Z,22.83
2019-04-20T17:09:58.012Z,22.91
2019-04-20T17:12:28.064Z,23.09
2019-04-20T17:14:57.912Z,23.31
2019-04-20T17:17:27.582Z,23.56
2019-04-20T17:19:57.696Z,23.90
2019-04-20T17:22:27.573Z,24.08
2019-04-20T17:24:58.289Z,24.20
2019-04-20T17:27:47.273Z,24.37
2019-04-20T17:30:47.136Z,24.53
2019-04-20T17:33:19.515Z,24.84
2019-04-20T17:35:54.219Z,25.30
2019-04-20T17:38:18.438Z,25.71
2019-04-20T17:41:03.043Z,26.05
2019-04-20T17:43:26.332Z,26.43
2019-04-20T17:45:57.889Z,26.65
2019-04-20T17:48:33.244Z,26.91
2019-04-20T17:51:13.622Z,27.23
2019-04-20T17:54:06.277Z,27.43
2019-04-20T17:56:40.622Z,27.66
2019-04-20T17:59:10.337Z,27.85
2019-04-20T18:02:16.484Z,28.09
2019-04-20T18:05:06.575Z,28.66
2019-04-20T18:07:35.394Z,28.55
2019-04-20T18:10:05.818Z,28.55
2019-04-20T18:12:27.034Z,28.97
2019-04-20T18:15:00.629Z,29.19
2019-04-20T18:17:59.000Z,29.40
2019-04-20T18:20:18.998Z,29.59
2019-04-20T18:22:53.567Z,29.66
2019-04-20T18:25:53.418Z,29.79
2019-04-20T18:28:04.146Z,30.04
2019-04-20T18:30:41.518Z,30.34
2019-04-20T18:33:03.130Z,30.46
2019-04-20T18:35:35.679Z,30.55
2019-04-20T18:38:07.678Z,30.69
2019-04-20T18:40:44.822Z,30.78
2019-04-20T18:43:11.347Z,31.12
2019-04-20T18:45:58.776Z,31.32
2019-04-20T18:48:33.963Z,31.43
2019-04-20T18:50:42.259Z,31.68
2019-04-20T18:53:16.663Z,31.83
2019-04-20T18:55:48.376Z,32.20
2019-04-20T18:58:13.299Z,32.35
2019-04-20T19:00:47.994Z,32.46
2019-04-20T19:03:20.473Z,32.49
2019-04-20T19:05:45.169Z,32.59
2019-04-20T19:08:15.744Z,32.87
2019-04-20T19:10:52.400Z,33.02
2019-04-20T19:13:36.744Z,33.07
2019-04-20T19:16:20.976Z,33.15
2019-04-20T19:18:58.373Z,33.27
2019-04-20T19:21:15.161Z,33.46
2019-04-20T19:23:53.448Z,33.57
2019-04-20T19:26:20.602Z,33.67
2019-04-20T19:28:52.771Z,33.75
2019-04-20T19:31:36.817Z,33.93
2019-04-20T19:34:07.498Z,34.13
2019-04-20T19:36:33.385Z,34.29
2019-04-20T19:39:05.842Z,34.44
2019-04-20T19:41:35.388Z,34.59
2019-04-20T19:44:09.195Z,34.97
2019-04-20T19:47:01.327Z,35.16
2019-04-20T19:49:07.902Z,35.30
2019-04-20T19:51:49.265Z,35.52
2019-04-20T19:54:22.788Z,35.79
2019-04-20T19:56:47.330Z,35.85
2019-04-20T19:59:13.412Z,35.94
2019-04-20T20:01:32.007Z,36.22
2019-04-20T20:04:05.737Z,36.57
2019-04-20T20:06:42.658Z,36.86
2019-04-20T20:09:09.402Z,37.01
2019-04-20T20:11:40.490Z,37.17
2019-04-20T20:14:11.119Z,37.30
2019-04-20T20:16:58.925Z,37.49
2019-04-20T20:19:21.347Z,37.65
2019-04-20T20:21:56.657Z,37.89
2019-04-20T20:24:14.033Z,38.11
2019-04-20T20:26:50.023Z,38.22
2019-04-20T20:29:23.134Z,38.28
2019-04-20T20:31:58.174Z,38.41
2019-04-20T20:34:28.007Z,38.68
2019-04-20T20:36:55.989Z,38.90
2019-04-20T20:39:24.263Z,38.99
2019-04-20T20:41:58.055Z,39.02
2019-04-20T20:44:31.807Z,39.20
2019-04-20T20:47:00.740Z,39.41
2019-04-20T20:49:48.814Z,39.46
2019-04-20T20:52:12.288Z,39.59
2019-04-20T20:54:40.495Z,39.72
2019-04-20T20:57:04.894Z,39.88
2019-04-20T20:59:41.603Z,39.92
2019-04-20T21:02:06.848Z,40.03
2019-04-20T21:04:30.022Z,40.24
2019-04-20T21:07:00.600Z,40.62
2019-04-20T21:09:31.310Z,40.84
2019-04-20T21:12:06.367Z,40.90
2019-04-20T21:14:35.017Z,41.11
2019-04-20T21:17:14.079Z,41.36
2019-04-20T21:19:53.332Z,41.49
2019-04-20T21:22:16.521Z,41.70
2019-04-20T21:24:42.164Z,41.86
2019-04-20T21:27:16.496Z,42.14
2019-04-20T21:29:49.288Z,42.26
2019-04-20T21:32:17.955Z,42.32
2019-04-20T21:34:52.106Z,42.49
2019-04-20T21:37:20.075Z,42.60
2019-04-20T21:39:55.416Z,42.77
2019-04-20T21:42:21.632Z,42.95
2019-04-20T21:44:52.177Z,43.04
2019-04-20T21:47:23.803Z,43.34
2019-04-20T21:50:05.766Z,43.54
2019-04-20T21:52:29.898Z,43.72
2019-04-20T21:54:54.191Z,43.92
2019-04-20T21:57:24.181Z,44.15
2019-04-20T22:00:02.587Z,44.34
2019-04-20T22:02:30.682Z,44.41
2019-04-20T22:04:57.838Z,44.48
2019-04-20T22:07:28.324Z,44.62
2019-04-20T22:09:58.507Z,44.83
2019-04-20T22:12:35.876Z,44.96
2019-04-20T22:15:07.462Z,44.98
2019-04-20T22:17:36.033Z,45.07
2019-04-20T22:20:19.150Z,45.14
2019-04-20T22:22:52.310Z,45.07
2019-04-20T22:25:28.213Z,45.10
2019-04-20T22:27:38.864Z,45.27
2019-04-20T22:30:10.381Z,45.23
2019-04-20T22:32:44.206Z,45.24
2019-04-20T22:35:15.428Z,45.32
2019-04-20T22:38:03.637Z,45.41
2019-04-20T22:40:28.014Z,45.56
2019-04-20T22:42:57.827Z,45.60
2019-04-20T22:45:25.409Z,45.68
2019-04-20T22:48:01.883Z,45.79
2019-04-20T22:50:43.814Z,45.91
2019-04-20T22:53:14.963Z,46.08
2019-04-20T22:55:47.799Z,46.12
2019-04-20T22:58:14.314Z,46.20
2019-04-20T23:00:40.705Z,46.21
2019-04-20T23:03:02.851Z,46.07
2019-04-20T23:05:32.985Z,45.97
2019-04-20T23:08:02.597Z,46.15
2019-04-20T23:10:38.657Z,46.23
2019-04-20T23:13:03.226Z,46.24
2019-04-20T23:15:34.207Z,46.22
2019-04-20T23:18:04.290Z,46.39
2019-04-20T23:20:38.430Z,46.41
2019-04-20T23:23:05.449Z,46.38
2019-04-20T23:25:35.211Z,46.38
2019-04-20T23:28:12.396Z,46.52
2019-04-20T23:30:39.389Z,46.57
2019-04-20T23:33:07.868Z,46.63
2019-04-20T23:35:42.307Z,46.62
2019-04-20T23:38:13.933Z,46.67
2019-04-20T23:40:39.683Z,46.83
2019-04-20T23:43:20.198Z,47.00
2019-04-20T23:46:16.982Z,47.03
2019-04-20T23:48:46.409Z,47.10
2019-04-20T23:51:36.996Z,46.98
2019-04-20T23:53:56.686Z,47.09
2019-04-20T23:56:20.404Z,47.20
2019-04-20T23:58:52.923Z,47.42
